Overview Statistics Trail Chart Weather Telemetry Raw packets
 

This is the latest recevied weather packets stored in our database for station/object NK7E-2. If no packets are shown the sender has not sent any weather packets the latest 10 day(s).

<< 31 32 33 34 35 36 37 >>
Time Temp. Humidity Pressure Rain* Wind** Luminosity Snow
1787979016 31.67° C 34% 1028.8 hPa 0 mm - - -
1787978416 31.67° C 33% 1028.8 hPa 0 mm - - -
1787977816 31.11° C 34% 1028.8 hPa 0 mm - - -
1787977216 31.67° C 33% 1028.6 hPa 0 mm - - -
1787976616 31.11° C 34% 1028.6 hPa 0 mm - - -
1787976016 31.11° C 35% 1028.7 hPa 0 mm - - -
1787975416 31.11° C 36% 1028.4 hPa 0 mm - - -
1787974816 31.11° C 35% 1028 hPa 0 mm - - -
1787974216 31.67° C 33% 1027.6 hPa 0 mm - - -
1787973616 32.22° C 35% 1027.7 hPa 0 mm - - -
1787973016 32.22° C 32% 1027.4 hPa 0 mm - - -
1787972416 32.22° C 32% 1027.4 hPa 0 mm - - -
1787971816 32.22° C 30% 1026.8 hPa 0 mm - - -
1787971216 32.78° C 30% 1026.8 hPa 0 mm - - -
1787970616 32.78° C 29% 1026.6 hPa 0 mm - - -
1787970016 33.89° C 28% 1026.4 hPa 0 mm - - -
1787969416 34.44° C 26% 1026.5 hPa 0 mm - - -
1787968816 35° C 23% 1026.1 hPa 0 mm - - -
1787968216 35° C 24% 1026.4 hPa 0 mm - - -
1787967616 34.44° C 25% 1026.7 hPa 0 mm - - -
1787967016 35° C 24% 1026.8 hPa 0 mm - - -
1787966416 35° C 25% 1026.6 hPa 0 mm - - -
1787965816 35° C 24% 1026.4 hPa 0 mm - - -
1787965216 35.56° C 25% 1026.6 hPa 0 mm - - -
1787964616 35.56° C 26% 1026.4 hPa 0 mm - - -

* Rain latest hour (hover to see other rain measurements)
** Current wind speed in m/s (hover to see current wind gust speed)